Overlook, Kentucky
Current Conditions -  °F | °C
As of 6:55 PM on Tuesday 21 Oct 2014 (Local Time) from K5M9 Reporting Station
Clear Clear  
Wind Chill: 56°   Ceiling: Unl
Heat Index: 56°   Visibility: 10mi
Dew Point: 45°   Wind: 5mph
Humidity: 66%   Direction: 40°NE
Pressure: 30.11"   Gusts: NA
Location:  37.0504°N, 88.0159°W
Report Text: K5M9 212355Z AUTO 04004KT 10SM CLR 13/07 A3011 RMK AO2 T01320070 10192 20132
Loading
Personal Weather Stations






























Interactive Weather Map
Tropical Storm Tracking
New forecast layout! Learn more

10-Day Weather Forecast

Advertisements
Track Severe Weather on mobile